Princeville, HI (96722)

10:05 AM HST on August 30, 2015 (GMT -1000)
North Shore of Kauai | | Change Station
CLOSE
Current Station
Personal Weather Station
Location: Princeville, HI
Elevation: 200 ft
Nearby Weather Stations

Elev 200 ft 22.23 °N, 159.48 °W | Updated 5 seconds ago

Scattered Clouds
Scattered Clouds
85.1 °F
Feels Like 102 °F
N
3.6
Wind Variable Wind from East
Gusts 9.8 mph

Today
High -- | Low -- °F
--% Chance of Precip.
Yesterday
High -- | Low -- °F
Precip. -- in
6:20 AM 6:56 PM
Full, 98% visible
Pressure 29.94 in
Visibility 10.0 miles
Clouds Scattered Clouds 2500 ft
Heat Index 102 °F
Dew Point 82 °F
Humidity 90%
Rainfall 0.17 in
Snow Depth Not available.
UV 6 out of 12
Pollen Not available.
Air Quality Not available.
Flu Activity Not available.
METAR PHLI 301953Z 06011KT 10SM SCT025 29/25 A2995 RMK AO2 SLP138 T02890250 $
Pressure 29.94 in
Visibility 10.0 miles
Clouds Scattered Clouds 2500 ft
Heat Index 102 °F
Dew Point 82 °F
Humidity 90%
Rainfall 0.17 in
Snow Depth Not available.
UV 6 out of 12
Pollen Not available.
Air Quality Not available.
Flu Activity Not available.
METAR PHLI 301953Z 06011KT 10SM SCT025 29/25 A2995 RMK AO2 SLP138 T02890250 $
Hurricane Ignacio strengthened into a Category 4 hurricane Saturday and its current forecast track takes it just north of The Big Island Monday. While it is not a direct threat to make landfall in Hawaii, a track slightly to the south of its current forecast track could deteriorate weather conditions in the state. See the forecast track

10-Day Weather Forecast

×

Almanac

Astronomy

Aug. 30, 2015 Rise Set
Actual Time
Civil Twilight
Nautical Twilight
Astronomical Twilight
Moon
Length of Visible Light
Length of Day
Tomorrow will be .
, % of the Moon is Illuminated

Today's Extremes

State Highs State Lows

Community

WunderPhotos

Upload Photos

1,851,048 photos uploaded!

WunderBlogs® & News

Nearby

Air Quality

  Air Quality AQ Index Pollutant
Not available.

Snow Depth

Station Depth Elevation

Earthquake Activity

City Distance Mag. Time & Date
Minimum magnitude displayed is 2.5.

Coastal Water Temperatures

Place Temperature

Stations

Nearby Weather Stations

Station Location Temp. Windchill Dew Point Humidity Wind Precip. Elev Updated Type